createdAt,value
2019-04-21T00:00:39.852Z,0.00
2019-04-21T00:01:44.147Z,0.00
2019-04-21T00:03:39.838Z,0.00
2019-04-21T00:04:48.156Z,0.00
2019-04-21T00:07:03.274Z,0.00
2019-04-21T00:07:45.036Z,0.00
2019-04-21T00:09:40.041Z,0.00
2019-04-21T00:10:40.606Z,0.00
2019-04-21T00:12:29.856Z,0.00
2019-04-21T00:13:28.098Z,0.00
2019-04-21T00:15:16.086Z,0.00
2019-04-21T00:16:10.173Z,0.00
2019-04-21T00:18:02.467Z,0.00
2019-04-21T00:19:07.121Z,0.00
2019-04-21T00:20:55.206Z,0.00
2019-04-21T00:22:01.581Z,0.00
2019-04-21T00:24:00.391Z,0.00
2019-04-21T00:25:04.304Z,0.00
2019-04-21T00:26:58.992Z,0.00
2019-04-21T00:27:50.368Z,0.00
2019-04-21T00:29:49.704Z,0.00
2019-04-21T00:30:50.891Z,0.00
2019-04-21T00:32:36.885Z,0.00
2019-04-21T00:33:28.848Z,0.00
2019-04-21T00:35:22.227Z,0.00
2019-04-21T00:36:25.269Z,0.00
2019-04-21T00:38:34.584Z,0.00
2019-04-21T00:39:36.404Z,0.00
2019-04-21T00:41:25.995Z,0.00
2019-04-21T00:42:24.153Z,0.00
2019-04-21T00:44:08.733Z,0.00
2019-04-21T00:45:12.053Z,0.00
2019-04-21T00:47:01.829Z,0.00
2019-04-21T00:48:11.380Z,0.00
2019-04-21T00:50:05.234Z,0.00
2019-04-21T00:51:16.299Z,0.00
2019-04-21T00:54:04.014Z,0.00
2019-04-21T00:55:57.628Z,0.00
2019-04-21T00:56:56.719Z,0.00
2019-04-21T00:58:49.862Z,0.00
2019-04-21T00:59:46.365Z,0.00
2019-04-21T01:01:31.421Z,0.00
2019-04-21T01:02:41.631Z,0.00
2019-04-21T01:04:30.676Z,0.00
2019-04-21T01:05:28.286Z,0.00
2019-04-21T01:07:19.441Z,0.00
2019-04-21T01:08:19.863Z,0.00
2019-04-21T01:10:06.681Z,0.00
2019-04-21T01:11:17.865Z,0.00
2019-04-21T01:13:09.544Z,0.00
2019-04-21T01:14:16.631Z,0.00
2019-04-21T01:16:03.342Z,0.00
2019-04-21T01:17:06.816Z,0.00
2019-04-21T01:18:49.356Z,0.00
2019-04-21T01:19:49.137Z,0.00
2019-04-21T01:21:26.009Z,0.00
2019-04-21T01:22:26.067Z,0.00
2019-04-21T01:24:25.919Z,0.00
2019-04-21T01:25:28.211Z,0.00
2019-04-21T01:27:22.689Z,0.00
2019-04-21T01:28:29.067Z,0.00
2019-04-21T01:30:32.583Z,0.00
2019-04-21T01:31:23.785Z,0.00
2019-04-21T01:33:21.657Z,0.00
2019-04-21T01:34:23.304Z,0.00
2019-04-21T01:36:08.416Z,0.00
2019-04-21T01:37:03.968Z,0.00
2019-04-21T01:39:08.017Z,0.00
2019-04-21T01:40:08.452Z,0.00
2019-04-21T01:42:00.058Z,0.00
2019-04-21T01:42:58.024Z,0.00
2019-04-21T01:44:56.804Z,0.00
2019-04-21T01:45:49.181Z,0.00
2019-04-21T01:47:44.689Z,0.00
2019-04-21T01:48:39.134Z,0.00
2019-04-21T01:50:34.514Z,0.00
2019-04-21T01:51:36.956Z,0.00
2019-04-21T01:53:30.731Z,0.00
2019-04-21T01:54:33.258Z,0.00
2019-04-21T01:56:24.103Z,0.00
2019-04-21T01:57:17.619Z,0.00
2019-04-21T01:59:04.939Z,0.00
2019-04-21T02:00:06.257Z,0.00
2019-04-21T02:02:15.983Z,0.00
2019-04-21T02:03:28.520Z,0.00
2019-04-21T02:05:11.863Z,0.00
2019-04-21T02:06:07.695Z,0.00
2019-04-21T02:07:55.216Z,0.00
2019-04-21T02:08:54.987Z,0.00
2019-04-21T02:10:54.650Z,0.00
2019-04-21T02:11:50.858Z,0.00
2019-04-21T02:13:46.853Z,0.00
2019-04-21T02:14:47.382Z,0.00
2019-04-21T02:16:39.199Z,0.00
2019-04-21T02:17:34.255Z,0.00
2019-04-21T02:19:23.603Z,0.00
2019-04-21T02:20:18.235Z,0.00
2019-04-21T02:22:19.198Z,0.00
2019-04-21T02:23:34.664Z,0.00
2019-04-21T02:25:15.130Z,0.00
2019-04-21T02:26:21.154Z,0.00
2019-04-21T02:28:13.401Z,0.00
2019-04-21T02:29:08.458Z,0.00
2019-04-21T02:31:18.656Z,0.00
2019-04-21T02:32:10.553Z,0.00
2019-04-21T02:34:06.667Z,0.00
2019-04-21T02:37:07.429Z,0.00
2019-04-21T02:39:56.661Z,0.00
2019-04-21T02:42:46.617Z,0.00
2019-04-21T02:43:46.200Z,0.00
2019-04-21T02:46:37.969Z,0.00
2019-04-21T02:48:32.927Z,0.00
2019-04-21T02:49:35.370Z,0.00
2019-04-21T02:51:28.174Z,0.00
2019-04-21T02:55:06.308Z,0.00
2019-04-21T02:57:09.167Z,0.00
2019-04-21T02:58:06.140Z,0.00
2019-04-21T03:01:07.531Z,0.00
2019-04-21T03:03:55.025Z,0.00
2019-04-21T03:05:58.790Z,0.00
2019-04-21T03:06:59.397Z,0.00
2019-04-21T03:08:49.671Z,0.00
2019-04-21T03:09:36.578Z,0.00
2019-04-21T03:11:28.954Z,0.00
2019-04-21T03:14:40.848Z,0.00
2019-04-21T03:15:29.245Z,0.00
2019-04-21T03:17:22.306Z,0.00
2019-04-21T03:23:09.380Z,0.00
2019-04-21T03:26:07.297Z,0.00
2019-04-21T03:27:12.615Z,0.00
2019-04-21T03:29:57.093Z,0.00
2019-04-21T03:38:39.087Z,0.00
2019-04-21T03:40:18.712Z,0.00
2019-04-21T03:41:18.898Z,0.00
2019-04-21T03:43:20.288Z,0.00
2019-04-21T03:44:14.420Z,0.00
2019-04-21T03:46:12.064Z,0.00
2019-04-21T03:51:59.206Z,0.00
2019-04-21T03:53:09.672Z,0.00
2019-04-21T03:55:05.554Z,0.00
2019-04-21T03:57:57.362Z,0.00
2019-04-21T04:01:32.414Z,0.00
2019-04-21T04:03:42.202Z,0.00
2019-04-21T04:04:27.933Z,0.00
2019-04-21T04:06:20.509Z,0.00
2019-04-21T04:07:31.202Z,0.00
2019-04-21T04:09:18.632Z,0.00
2019-04-21T04:10:13.904Z,0.00
2019-04-21T04:12:06.587Z,0.00
2019-04-21T04:13:05.892Z,5.63
2019-04-21T04:15:03.053Z,5.63
2019-04-21T04:16:05.965Z,5.63
2019-04-21T04:17:49.809Z,5.63
2019-04-21T04:18:53.152Z,5.63
2019-04-21T04:21:03.070Z,11.25
2019-04-21T04:21:56.381Z,11.25
2019-04-21T04:23:47.371Z,11.25
2019-04-21T04:24:39.255Z,16.88
2019-04-21T04:26:33.592Z,16.88
2019-04-21T04:27:47.019Z,16.88
2019-04-21T04:30:29.642Z,22.50
2019-04-21T04:32:28.415Z,28.13
2019-04-21T04:33:34.405Z,28.13
2019-04-21T04:35:34.004Z,33.75
2019-04-21T04:36:24.355Z,33.75
2019-04-21T04:38:07.192Z,39.38
2019-04-21T04:39:22.074Z,39.38
2019-04-21T04:41:01.046Z,45.00
2019-04-21T04:42:04.427Z,50.63
2019-04-21T04:43:57.322Z,50.63
2019-04-21T04:47:47.320Z,61.88
2019-04-21T04:49:43.258Z,67.50
2019-04-21T04:50:43.390Z,73.13
2019-04-21T04:52:32.662Z,73.13
2019-04-21T04:53:40.126Z,78.75
2019-04-21T04:55:27.073Z,84.38
2019-04-21T04:56:18.295Z,84.38
2019-04-21T04:58:42.722Z,90.00
2019-04-21T05:04:06.364Z,106.88
2019-04-21T05:07:11.504Z,118.13
2019-04-21T05:08:01.630Z,118.13
2019-04-21T05:09:47.223Z,123.75
2019-04-21T05:10:57.489Z,129.38
2019-04-21T05:12:38.536Z,135.00
2019-04-21T05:13:51.156Z,135.00
2019-04-21T05:15:23.712Z,140.63
2019-04-21T05:16:43.140Z,146.25
2019-04-21T05:18:30.729Z,151.88
2019-04-21T05:19:24.488Z,151.88
2019-04-21T05:21:23.229Z,157.50
2019-04-21T05:23:59.839Z,168.75
2019-04-21T05:24:58.405Z,168.75
2019-04-21T05:26:52.893Z,174.38
2019-04-21T05:27:54.049Z,174.38
2019-04-21T05:29:56.772Z,180.00
2019-04-21T05:31:00.983Z,180.00
2019-04-21T05:32:45.099Z,185.63
2019-04-21T05:33:47.815Z,191.25
2019-04-21T05:35:37.306Z,196.88
2019-04-21T05:36:37.698Z,196.88
2019-04-21T05:38:27.274Z,202.50
2019-04-21T05:39:24.783Z,208.13
2019-04-21T05:41:11.072Z,213.75
2019-04-21T05:42:08.943Z,219.38
2019-04-21T05:44:19.338Z,225.00
2019-04-21T05:45:22.846Z,225.00
2019-04-21T05:47:26.553Z,230.63
2019-04-21T05:48:18.983Z,236.25
2019-04-21T05:49:59.518Z,241.88
2019-04-21T05:50:59.244Z,247.50
2019-04-21T05:52:47.647Z,253.13
2019-04-21T05:53:56.104Z,258.75
2019-04-21T05:55:51.756Z,270.00
2019-04-21T05:56:48.701Z,275.63
2019-04-21T05:58:40.877Z,281.25
2019-04-21T06:02:56.090Z,303.75
2019-04-21T06:04:41.602Z,326.25
2019-04-21T06:05:37.827Z,331.88
2019-04-21T06:07:23.118Z,365.63
2019-04-21T06:08:19.986Z,388.13
2019-04-21T06:10:12.641Z,433.13
2019-04-21T06:13:13.427Z,489.38
2019-04-21T06:14:10.829Z,506.25
2019-04-21T06:16:03.984Z,596.25
2019-04-21T06:17:01.626Z,1040.63
2019-04-21T06:18:57.989Z,1811.25
2019-04-21T06:19:58.988Z,1856.25
2019-04-21T06:21:44.779Z,1968.75
2019-04-21T06:24:42.212Z,2013.75
2019-04-21T06:25:51.814Z,2058.75
2019-04-21T06:27:44.325Z,2086.88
2019-04-21T06:28:33.735Z,2058.75
2019-04-21T06:30:28.508Z,2086.88
2019-04-21T06:33:20.257Z,2098.13
2019-04-21T06:34:16.720Z,2137.50
2019-04-21T06:37:34.838Z,2261.25
2019-04-21T06:40:17.737Z,2216.25
2019-04-21T06:42:01.320Z,2289.38
2019-04-21T06:43:16.323Z,2205.00
2019-04-21T06:44:53.776Z,2233.13
2019-04-21T06:46:10.959Z,2244.38
2019-04-21T06:47:53.983Z,2385.00
2019-04-21T06:48:49.344Z,2413.13
2019-04-21T06:50:39.530Z,2446.88
2019-04-21T06:51:38.465Z,2334.38
2019-04-21T06:53:42.093Z,2531.25
2019-04-21T06:54:35.233Z,2514.38
2019-04-21T06:56:32.126Z,2520.00
2019-04-21T06:57:23.182Z,2553.75
2019-04-21T06:59:09.663Z,2621.25
2019-04-21T07:00:13.486Z,2610.00
2019-04-21T07:02:30.758Z,2666.25
2019-04-21T07:03:17.123Z,2739.38
2019-04-21T07:05:07.842Z,2733.75
2019-04-21T07:06:06.999Z,2801.25
2019-04-21T07:08:07.724Z,2716.88
2019-04-21T07:09:06.371Z,2745.00
2019-04-21T07:10:46.325Z,2795.63
2019-04-21T07:11:43.974Z,2818.13
2019-04-21T07:13:41.583Z,2835.00
2019-04-21T07:16:38.626Z,2823.75
2019-04-21T07:17:37.629Z,2840.63
2019-04-21T07:19:40.973Z,2913.75
2019-04-21T07:20:21.752Z,2908.13
2019-04-21T07:22:24.731Z,2908.13
2019-04-21T07:23:28.500Z,2896.88
2019-04-21T07:25:18.641Z,2941.88
2019-04-21T07:26:16.018Z,2941.88
2019-04-21T07:28:07.440Z,3093.75
2019-04-21T07:29:07.919Z,3048.75
2019-04-21T07:31:03.767Z,3048.75
2019-04-21T07:34:51.776Z,3133.13
2019-04-21T07:36:52.628Z,3110.63
2019-04-21T07:37:48.101Z,3161.25
2019-04-21T07:39:35.760Z,3307.50
2019-04-21T07:40:36.530Z,3228.75
2019-04-21T07:42:24.063Z,3268.13
2019-04-21T07:43:25.929Z,3324.38
2019-04-21T07:45:17.986Z,3425.63
2019-04-21T07:46:17.199Z,3481.88
2019-04-21T07:48:18.941Z,3436.88
2019-04-21T07:49:15.537Z,3504.38
2019-04-21T07:51:11.128Z,3521.25
2019-04-21T07:52:11.347Z,3639.38
2019-04-21T07:54:26.903Z,3740.63
2019-04-21T07:55:05.938Z,3712.50
2019-04-21T07:56:40.623Z,3954.38
2019-04-21T07:57:52.655Z,3881.25
2019-04-21T08:00:01.204Z,3847.50
2019-04-21T08:00:49.541Z,3600.00
2019-04-21T08:02:40.649Z,3650.63
2019-04-21T08:03:39.903Z,3740.63
2019-04-21T08:05:35.539Z,3667.50
2019-04-21T08:06:43.702Z,3543.75
2019-04-21T08:08:26.853Z,3740.63
2019-04-21T08:09:29.459Z,3650.63
2019-04-21T08:11:24.342Z,3825.00
2019-04-21T08:12:14.498Z,3898.13
2019-04-21T08:14:16.995Z,3847.50
2019-04-21T08:15:21.755Z,3841.88
2019-04-21T08:17:09.828Z,3976.88
2019-04-21T08:18:07.074Z,3796.88
2019-04-21T08:19:53.712Z,3729.38
2019-04-21T08:21:02.465Z,3858.75
2019-04-21T08:23:02.535Z,3847.50
2019-04-21T08:23:48.583Z,3909.38
2019-04-21T08:25:56.290Z,4055.63
2019-04-21T08:27:06.283Z,4038.75
2019-04-21T08:28:42.705Z,3701.25
2019-04-21T08:29:40.826Z,3937.50
2019-04-21T08:31:46.396Z,3802.50
2019-04-21T08:32:49.637Z,3853.13
2019-04-21T08:34:28.363Z,4089.38
2019-04-21T08:37:18.251Z,3870.00
2019-04-21T08:38:20.354Z,3870.00
2019-04-21T08:40:15.766Z,3768.75
2019-04-21T08:41:14.945Z,3645.00
2019-04-21T08:42:59.982Z,3825.00
2019-04-21T08:44:02.318Z,3757.50
2019-04-21T08:46:13.010Z,3763.13
2019-04-21T08:46:58.904Z,3841.88
2019-04-21T08:49:06.244Z,3926.25
2019-04-21T08:49:47.521Z,3886.88
2019-04-21T08:51:50.702Z,3965.63
2019-04-21T08:52:49.270Z,4078.13
2019-04-21T08:54:36.771Z,4173.75
2019-04-21T08:55:42.966Z,4185.00
2019-04-21T08:57:39.639Z,4055.63
2019-04-21T08:58:39.500Z,4089.38
2019-04-21T09:00:29.246Z,3903.75
2019-04-21T09:01:23.799Z,3751.88
2019-04-21T09:03:19.554Z,3965.63
2019-04-21T09:04:13.281Z,3915.00
2019-04-21T09:06:17.567Z,3937.50
2019-04-21T09:09:08.187Z,3853.13
2019-04-21T09:10:02.829Z,3825.00
2019-04-21T09:11:54.889Z,3706.88
2019-04-21T09:12:54.751Z,3127.50
2019-04-21T09:14:51.251Z,573.75
2019-04-21T09:15:41.916Z,517.50
2019-04-21T09:17:32.904Z,466.88
2019-04-21T09:18:33.734Z,461.25
2019-04-21T09:20:43.983Z,461.25
2019-04-21T09:21:31.337Z,461.25
2019-04-21T09:23:26.113Z,461.25
2019-04-21T09:24:31.539Z,461.25
2019-04-21T09:26:18.602Z,455.63
2019-04-21T09:27:15.814Z,455.63
2019-04-21T09:29:04.369Z,450.00
2019-04-21T09:30:00.312Z,450.00
2019-04-21T09:31:48.489Z,450.00
2019-04-21T09:32:49.476Z,450.00
2019-04-21T09:34:43.815Z,444.38
2019-04-21T09:35:47.466Z,444.38
2019-04-21T09:37:45.754Z,438.75
2019-04-21T09:38:38.306Z,438.75
2019-04-21T09:40:32.683Z,444.38
2019-04-21T09:41:27.802Z,438.75
2019-04-21T09:43:31.724Z,438.75
2019-04-21T09:44:25.443Z,438.75
2019-04-21T09:46:12.248Z,438.75
2019-04-21T09:47:13.445Z,433.13
2019-04-21T09:49:08.593Z,433.13
2019-04-21T09:50:06.611Z,433.13
2019-04-21T09:51:58.379Z,427.50
2019-04-21T09:53:05.415Z,427.50
2019-04-21T09:55:00.881Z,421.88
2019-04-21T09:55:58.226Z,421.88
2019-04-21T09:57:50.053Z,421.88
2019-04-21T09:58:49.765Z,416.25
2019-04-21T10:00:46.146Z,410.63
2019-04-21T10:01:50.084Z,416.25
2019-04-21T10:03:37.079Z,416.25
2019-04-21T10:04:31.131Z,416.25
2019-04-21T10:06:23.833Z,410.63
2019-04-21T10:07:31.057Z,410.63
2019-04-21T10:09:19.737Z,405.00
2019-04-21T10:10:17.252Z,405.00
2019-04-21T10:12:09.910Z,405.00
2019-04-21T10:13:10.632Z,405.00
2019-04-21T10:15:04.203Z,399.38
2019-04-21T10:16:03.161Z,393.75
2019-04-21T10:17:56.160Z,388.13
2019-04-21T10:18:56.777Z,388.13
2019-04-21T10:20:49.221Z,393.75
2019-04-21T10:21:50.141Z,393.75
2019-04-21T10:23:42.132Z,388.13
2019-04-21T10:24:42.475Z,388.13
2019-04-21T10:26:35.604Z,382.50
2019-04-21T10:27:35.234Z,382.50
2019-04-21T10:29:30.923Z,376.88
2019-04-21T10:30:28.730Z,376.88
2019-04-21T10:32:23.447Z,371.25
2019-04-21T10:33:22.044Z,371.25
2019-04-21T10:35:15.010Z,371.25
2019-04-21T10:36:15.187Z,371.25
2019-04-21T10:38:20.494Z,371.25
2019-04-21T10:39:07.494Z,365.63
2019-04-21T10:41:01.368Z,365.63
2019-04-21T10:42:01.507Z,365.63
2019-04-21T10:43:53.582Z,365.63
2019-04-21T10:44:54.744Z,365.63
2019-04-21T10:46:48.400Z,360.00
2019-04-21T10:47:47.194Z,360.00
2019-04-21T10:49:40.282Z,354.38
2019-04-21T10:50:41.068Z,354.38
2019-04-21T10:52:34.767Z,348.75
2019-04-21T10:53:32.819Z,348.75
2019-04-21T10:55:41.487Z,348.75
2019-04-21T10:56:31.491Z,348.75
2019-04-21T10:58:20.291Z,343.13
2019-04-21T10:59:20.332Z,337.50
2019-04-21T11:01:12.747Z,337.50
2019-04-21T11:02:12.791Z,331.88
2019-04-21T11:04:07.555Z,331.88
2019-04-21T11:05:05.108Z,331.88
2019-04-21T11:07:06.783Z,326.25
2019-04-21T11:08:09.998Z,326.25
2019-04-21T11:09:51.844Z,326.25
2019-04-21T11:10:51.945Z,320.63
2019-04-21T11:12:44.734Z,320.63
2019-04-21T11:13:44.388Z,320.63
2019-04-21T11:15:37.327Z,320.63
2019-04-21T11:16:37.373Z,320.63
2019-04-21T11:18:31.517Z,320.63
2019-04-21T11:19:30.783Z,320.63
2019-04-21T11:21:24.918Z,315.00
2019-04-21T11:22:25.101Z,315.00
2019-04-21T11:24:18.155Z,315.00
2019-04-21T11:25:17.859Z,320.63
2019-04-21T11:27:10.952Z,315.00
2019-04-21T11:28:11.171Z,320.63
2019-04-21T11:30:03.281Z,309.38
2019-04-21T11:31:04.729Z,309.38
2019-04-21T11:32:57.163Z,309.38
2019-04-21T11:33:57.449Z,309.38
2019-04-21T11:35:49.401Z,315.00
2019-04-21T11:36:50.225Z,315.00
2019-04-21T11:38:57.121Z,315.00
2019-04-21T11:39:51.935Z,309.38
2019-04-21T11:41:36.278Z,309.38
2019-04-21T11:42:37.703Z,309.38
2019-04-21T11:44:29.243Z,303.75
2019-04-21T11:45:30.578Z,298.13
2019-04-21T11:49:04.158Z,298.13
2019-04-21T11:50:03.402Z,303.75
2019-04-21T11:51:56.510Z,298.13
2019-04-21T11:52:56.881Z,298.13
2019-04-21T11:54:49.347Z,298.13
2019-04-21T11:55:51.780Z,298.13
2019-04-21T11:57:46.348Z,303.75
2019-04-21T11:58:43.812Z,303.75
2019-04-21T12:00:35.846Z,298.13
2019-04-21T12:01:35.965Z,298.13
2019-04-21T12:03:29.504Z,298.13
2019-04-21T12:04:29.542Z,292.50
2019-04-21T12:06:30.855Z,292.50
2019-04-21T12:07:22.855Z,286.88
2019-04-21T12:09:14.864Z,286.88
2019-04-21T12:10:23.758Z,286.88
2019-04-21T12:12:09.780Z,286.88
2019-04-21T12:13:08.334Z,281.25
2019-04-21T12:15:01.952Z,275.63
2019-04-21T12:16:03.128Z,275.63
2019-04-21T12:17:56.346Z,275.63
2019-04-21T12:18:54.658Z,275.63
2019-04-21T12:20:47.397Z,270.00
2019-04-21T12:22:00.397Z,270.00
2019-04-21T12:23:42.609Z,264.38
2019-04-21T12:24:40.634Z,264.38
2019-04-21T12:26:34.230Z,264.38
2019-04-21T12:29:30.689Z,264.38
2019-04-21T12:30:33.611Z,264.38
2019-04-21T12:32:24.152Z,270.00
2019-04-21T12:33:24.359Z,270.00
2019-04-21T12:35:17.660Z,264.38
2019-04-21T12:36:17.860Z,264.38
2019-04-21T12:38:10.947Z,258.75
2019-04-21T12:39:10.711Z,253.13
2019-04-21T12:41:04.512Z,247.50
2019-04-21T12:42:04.619Z,247.50
2019-04-21T12:43:56.957Z,241.88
2019-04-21T12:44:57.252Z,241.88
2019-04-21T12:46:49.821Z,241.88
2019-04-21T12:47:50.693Z,241.88
2019-04-21T12:49:43.699Z,247.50
2019-04-21T12:50:43.722Z,247.50
2019-04-21T12:52:35.706Z,241.88
2019-04-21T12:53:35.902Z,241.88
2019-04-21T12:55:31.549Z,236.25
2019-04-21T12:56:29.482Z,236.25
2019-04-21T12:58:21.621Z,236.25
2019-04-21T12:59:21.614Z,236.25
2019-04-21T13:01:14.721Z,236.25
2019-04-21T13:02:15.974Z,236.25
2019-04-21T13:04:08.168Z,236.25
2019-04-21T13:05:07.745Z,236.25
2019-04-21T13:07:01.474Z,236.25
2019-04-21T13:08:01.622Z,236.25
2019-04-21T13:09:54.613Z,236.25
2019-04-21T13:10:53.996Z,236.25
2019-04-21T13:12:48.005Z,236.25
2019-04-21T13:13:48.095Z,236.25
2019-04-21T13:15:39.978Z,236.25
2019-04-21T13:16:41.174Z,241.88
2019-04-21T13:18:33.287Z,236.25
2019-04-21T13:19:33.518Z,236.25
2019-04-21T13:21:26.096Z,230.63
2019-04-21T13:22:26.135Z,230.63
2019-04-21T13:24:19.966Z,236.25
2019-04-21T13:25:20.077Z,236.25
2019-04-21T13:27:12.752Z,230.63
2019-04-21T13:28:12.563Z,230.63
2019-04-21T13:30:06.330Z,230.63
2019-04-21T13:31:06.482Z,230.63
2019-04-21T13:32:58.930Z,230.63
2019-04-21T13:33:59.833Z,230.63
2019-04-21T13:35:53.015Z,230.63
2019-04-21T13:36:51.773Z,230.63
2019-04-21T13:39:09.633Z,230.63
2019-04-21T13:40:09.993Z,230.63
2019-04-21T13:41:49.414Z,230.63
2019-04-21T13:42:42.640Z,230.63
2019-04-21T13:44:30.944Z,230.63
2019-04-21T13:45:32.055Z,230.63
2019-04-21T13:47:24.803Z,230.63
2019-04-21T13:48:24.399Z,230.63
2019-04-21T13:50:17.348Z,230.63
2019-04-21T13:51:17.538Z,230.63
2019-04-21T13:53:09.786Z,230.63
2019-04-21T13:54:09.823Z,230.63
2019-04-21T13:56:02.860Z,230.63
2019-04-21T13:57:02.924Z,230.63
2019-04-21T13:58:56.016Z,230.63
2019-04-21T13:59:57.106Z,225.00
2019-04-21T14:01:49.789Z,225.00
2019-04-21T14:02:49.086Z,225.00
2019-04-21T14:04:43.223Z,225.00
2019-04-21T14:05:42.457Z,225.00
2019-04-21T14:07:36.348Z,225.00
2019-04-21T14:08:35.156Z,230.63
2019-04-21T14:10:29.250Z,225.00
2019-04-21T14:11:29.275Z,225.00
2019-04-21T14:13:22.306Z,225.00
2019-04-21T14:14:21.295Z,225.00
2019-04-21T14:16:14.312Z,225.00
2019-04-21T14:17:15.068Z,225.00
2019-04-21T14:19:07.683Z,219.38
2019-04-21T14:20:07.430Z,219.38
2019-04-21T14:22:01.172Z,219.38
2019-04-21T14:23:13.234Z,219.38
2019-04-21T14:24:54.118Z,219.38
2019-04-21T14:25:53.551Z,219.38
2019-04-21T14:27:49.067Z,219.38
2019-04-21T14:28:47.208Z,219.38
2019-04-21T14:30:40.718Z,219.38
2019-04-21T14:31:40.225Z,219.38
2019-04-21T14:33:33.847Z,219.38
2019-04-21T14:34:34.012Z,219.38
2019-04-21T14:36:26.557Z,213.75
2019-04-21T14:37:26.558Z,213.75
2019-04-21T14:39:18.797Z,213.75
2019-04-21T14:40:23.996Z,213.75
2019-04-21T14:42:11.997Z,213.75
2019-04-21T14:43:12.047Z,213.75
2019-04-21T14:45:05.071Z,213.75
2019-04-21T14:46:06.365Z,213.75
2019-04-21T14:47:58.961Z,213.75
2019-04-21T14:48:59.254Z,213.75
2019-04-21T14:50:52.379Z,208.13
2019-04-21T14:51:51.140Z,208.13
2019-04-21T14:53:44.160Z,208.13
2019-04-21T14:54:44.640Z,208.13
2019-04-21T14:56:37.458Z,208.13
2019-04-21T14:57:37.261Z,208.13
2019-04-21T14:59:31.095Z,208.13
2019-04-21T15:00:31.268Z,208.13
2019-04-21T15:02:23.317Z,208.13
2019-04-21T15:03:23.688Z,208.13
2019-04-21T15:05:17.496Z,208.13
2019-04-21T15:06:16.438Z,208.13
2019-04-21T15:08:09.439Z,202.50
2019-04-21T15:09:09.520Z,202.50
2019-04-21T15:11:03.236Z,202.50
2019-04-21T15:12:02.599Z,202.50
2019-04-21T15:13:55.957Z,202.50
2019-04-21T15:14:56.000Z,202.50
2019-04-21T15:16:49.036Z,202.50
2019-04-21T15:17:49.445Z,202.50
2019-04-21T15:19:42.841Z,202.50
2019-04-21T15:20:42.786Z,202.50
2019-04-21T15:22:34.802Z,196.88
2019-04-21T15:23:36.119Z,196.88
2019-04-21T15:25:28.002Z,196.88
2019-04-21T15:26:28.442Z,196.88
2019-04-21T15:28:22.007Z,196.88
2019-04-21T15:29:20.947Z,196.88
2019-04-21T15:31:21.848Z,196.88
2019-04-21T15:32:14.892Z,191.25
2019-04-21T15:34:07.423Z,191.25
2019-04-21T15:35:07.076Z,191.25
2019-04-21T15:37:00.076Z,191.25
2019-04-21T15:38:00.138Z,191.25
2019-04-21T15:39:53.161Z,191.25
2019-04-21T15:40:57.071Z,191.25
2019-04-21T15:42:46.542Z,191.25
2019-04-21T15:43:46.751Z,191.25
2019-04-21T15:45:39.289Z,185.63
2019-04-21T15:46:39.891Z,185.63
2019-04-21T15:48:33.079Z,185.63
2019-04-21T15:49:42.134Z,185.63
2019-04-21T15:51:25.969Z,185.63
2019-04-21T15:52:25.522Z,185.63
2019-04-21T15:54:18.560Z,185.63
2019-04-21T15:55:18.887Z,185.63
2019-04-21T15:57:13.952Z,185.63
2019-04-21T15:58:12.326Z,185.63
2019-04-21T16:00:04.712Z,180.00
2019-04-21T16:01:04.849Z,180.00
2019-04-21T16:02:58.373Z,180.00
2019-04-21T16:04:00.423Z,180.00
2019-04-21T16:05:50.856Z,180.00
2019-04-21T16:06:50.769Z,180.00
2019-04-21T16:08:47.624Z,174.38
2019-04-21T16:09:44.003Z,174.38
2019-04-21T16:11:37.908Z,174.38
2019-04-21T16:12:37.905Z,174.38
2019-04-21T16:14:29.914Z,174.38
2019-04-21T16:15:30.351Z,174.38
2019-04-21T16:17:23.525Z,174.38
2019-04-21T16:18:24.396Z,174.38
2019-04-21T16:20:17.536Z,174.38
2019-04-21T16:21:16.073Z,168.75
2019-04-21T16:23:10.589Z,168.75
2019-04-21T16:24:09.141Z,168.75
2019-04-21T16:26:02.616Z,174.38
2019-04-21T16:27:05.288Z,168.75
2019-04-21T16:28:55.735Z,174.38
2019-04-21T16:29:55.880Z,168.75
2019-04-21T16:31:49.126Z,163.13
2019-04-21T16:32:49.890Z,163.13
2019-04-21T16:34:49.785Z,163.13
2019-04-21T16:35:42.019Z,163.13
2019-04-21T16:37:35.424Z,163.13
2019-04-21T16:38:35.482Z,157.50
2019-04-21T16:40:40.785Z,157.50
2019-04-21T16:41:28.668Z,157.50
2019-04-21T16:43:21.068Z,157.50
2019-04-21T16:44:21.105Z,157.50
2019-04-21T16:46:14.104Z,163.13
2019-04-21T16:47:14.167Z,157.50
2019-04-21T16:49:07.511Z,151.88
2019-04-21T16:50:07.793Z,151.88
2019-04-21T16:52:00.292Z,151.88
2019-04-21T16:53:01.691Z,151.88
2019-04-21T16:54:53.800Z,151.88
2019-04-21T16:55:53.377Z,151.88
2019-04-21T16:57:58.398Z,146.25
2019-04-21T16:58:46.434Z,146.25
2019-04-21T17:00:44.844Z,146.25
2019-04-21T17:01:40.688Z,146.25
2019-04-21T17:03:32.742Z,140.63
2019-04-21T17:04:33.737Z,140.63
2019-04-21T17:06:26.917Z,140.63
2019-04-21T17:07:26.275Z,140.63
2019-04-21T17:09:18.843Z,135.00
2019-04-21T17:10:18.697Z,135.00
2019-04-21T17:12:14.244Z,135.00
2019-04-21T17:13:11.764Z,135.00
2019-04-21T17:15:21.414Z,129.38
2019-04-21T17:16:29.880Z,129.38
2019-04-21T17:18:17.933Z,129.38
2019-04-21T17:19:08.786Z,129.38
2019-04-21T17:20:56.186Z,123.75
2019-04-21T17:21:52.112Z,129.38
2019-04-21T17:23:44.263Z,123.75
2019-04-21T17:24:44.396Z,123.75
2019-04-21T17:26:39.400Z,123.75
2019-04-21T17:27:37.063Z,118.13
2019-04-21T17:29:30.479Z,118.13
2019-04-21T17:30:30.594Z,118.13
2019-04-21T17:32:25.053Z,112.50
2019-04-21T17:33:26.893Z,112.50
2019-04-21T17:35:16.685Z,106.88
2019-04-21T17:36:16.812Z,106.88
2019-04-21T17:38:09.959Z,101.25
2019-04-21T17:39:10.967Z,101.25
2019-04-21T17:41:14.170Z,101.25
2019-04-21T17:42:14.236Z,95.63
2019-04-21T17:43:56.201Z,95.63
2019-04-21T17:44:55.439Z,90.00
2019-04-21T17:46:54.487Z,90.00
2019-04-21T17:47:54.427Z,84.38
2019-04-21T17:49:41.521Z,84.38
2019-04-21T17:50:41.552Z,78.75
2019-04-21T17:52:38.847Z,78.75
2019-04-21T17:53:41.415Z,73.13
2019-04-21T17:55:31.290Z,73.13
2019-04-21T17:56:55.107Z,67.50
2019-04-21T17:58:34.139Z,67.50
2019-04-21T17:59:54.944Z,61.88
2019-04-21T18:01:40.836Z,61.88
2019-04-21T18:02:38.586Z,61.88
2019-04-21T18:04:24.367Z,56.25
2019-04-21T18:05:29.063Z,56.25
2019-04-21T18:07:15.204Z,50.63
2019-04-21T18:08:21.473Z,50.63
2019-04-21T18:10:08.734Z,45.00
2019-04-21T18:11:03.436Z,45.00
2019-04-21T18:12:57.253Z,39.38
2019-04-21T18:13:47.234Z,39.38
2019-04-21T18:15:53.443Z,39.38
2019-04-21T18:16:42.777Z,33.75
2019-04-21T18:18:32.903Z,33.75
2019-04-21T18:19:36.362Z,33.75
2019-04-21T18:21:25.144Z,28.13
2019-04-21T18:22:34.715Z,28.13
2019-04-21T18:24:22.583Z,22.50
2019-04-21T18:25:30.740Z,22.50
2019-04-21T18:27:11.480Z,22.50
2019-04-21T18:28:12.460Z,16.88
2019-04-21T18:30:04.480Z,16.88
2019-04-21T18:31:04.712Z,16.88
2019-04-21T18:32:59.974Z,11.25
2019-04-21T18:34:04.417Z,11.25
2019-04-21T18:35:55.090Z,11.25
2019-04-21T18:36:54.190Z,11.25
2019-04-21T18:39:06.892Z,5.63
2019-04-21T18:39:55.879Z,5.63
2019-04-21T18:41:42.760Z,5.63
2019-04-21T18:43:05.643Z,5.63
2019-04-21T18:45:06.367Z,0.00
2019-04-21T18:47:40.478Z,0.00
2019-04-21T18:48:34.452Z,0.00
2019-04-21T18:50:18.559Z,0.00
2019-04-21T18:51:20.906Z,0.00
2019-04-21T18:53:24.499Z,0.00
2019-04-21T18:54:33.671Z,0.00
2019-04-21T18:56:06.518Z,0.00
2019-04-21T18:57:13.621Z,0.00
2019-04-21T18:58:56.496Z,0.00
2019-04-21T18:59:57.385Z,0.00
2019-04-21T19:01:55.178Z,0.00
2019-04-21T19:02:54.211Z,0.00
2019-04-21T19:04:44.950Z,0.00
2019-04-21T19:05:50.114Z,0.00
2019-04-21T19:07:55.859Z,0.00
2019-04-21T19:08:59.257Z,0.00
2019-04-21T19:10:48.565Z,0.00
2019-04-21T19:11:50.218Z,0.00
2019-04-21T19:13:51.335Z,0.00
2019-04-21T19:14:40.029Z,0.00
2019-04-21T19:20:29.466Z,0.00
2019-04-21T19:22:16.999Z,0.00
2019-04-21T19:23:21.554Z,0.00
2019-04-21T19:25:16.404Z,0.00
2019-04-21T19:26:25.321Z,0.00
2019-04-21T19:28:06.400Z,0.00
2019-04-21T19:29:11.335Z,0.00